sensor_id;sensor_type;location;lat;lon;timestamp;temperature;humidity
20735;DHT22;10528;52.124;5.196;2023-02-01T00:01:05;6.80;99.90
20735;DHT22;10528;52.124;5.196;2023-02-01T00:03:33;6.80;99.90
20735;DHT22;10528;52.124;5.196;2023-02-01T00:06:00;6.90;99.90
20735;DHT22;10528;52.124;5.196;2023-02-01T00:08:28;6.90;99.90
20735;DHT22;10528;52.124;5.196;2023-02-01T00:11:08;6.90;99.90
20735;DHT22;10528;52.124;5.196;2023-02-01T00:13:39;6.90;99.90
20735;DHT22;10528;52.124;5.196;2023-02-01T00:16:12;6.90;99.90
20735;DHT22;10528;52.124;5.196;2023-02-01T00:18:40;6.80;99.90
20735;DHT22;10528;52.124;5.196;2023-02-01T00:21:07;6.80;99.90
20735;DHT22;10528;52.124;5.196;2023-02-01T00:23:37;6.90;99.90
20735;DHT22;10528;52.124;5.196;2023-02-01T00:26:07;6.80;99.90
20735;DHT22;10528;52.124;5.196;2023-02-01T00:28:37;6.90;99.90
20735;DHT22;10528;52.124;5.196;2023-02-01T00:31:04;6.80;99.90
20735;DHT22;10528;52.124;5.196;2023-02-01T00:33:32;6.90;99.90
20735;DHT22;10528;52.124;5.196;2023-02-01T00:36:02;7.00;99.90
20735;DHT22;10528;52.124;5.196;2023-02-01T00:38:31;7.00;99.90
20735;DHT22;10528;52.124;5.196;2023-02-01T00:41:10;7.00;99.90
20735;DHT22;10528;52.124;5.196;2023-02-01T00:43:43;7.10;99.90
20735;DHT22;10528;52.124;5.196;2023-02-01T00:46:12;7.20;99.90
20735;DHT22;10528;52.124;5.196;2023-02-01T00:48:40;7.40;99.90
20735;DHT22;10528;52.124;5.196;2023-02-01T00:51:11;7.40;99.90
20735;DHT22;10528;52.124;5.196;2023-02-01T00:53:42;7.50;99.90
20735;DHT22;10528;52.124;5.196;2023-02-01T00:56:11;7.60;99.90
20735;DHT22;10528;52.124;5.196;2023-02-01T00:58:39;7.60;99.90
20735;DHT22;10528;52.124;5.196;2023-02-01T01:01:12;7.70;99.90
20735;DHT22;10528;52.124;5.196;2023-02-01T01:03:49;7.70;99.90
20735;DHT22;10528;52.124;5.196;2023-02-01T01:06:23;7.60;99.90
20735;DHT22;10528;52.124;5.196;2023-02-01T01:08:56;7.50;99.90
20735;DHT22;10528;52.124;5.196;2023-02-01T01:11:27;7.60;99.90
20735;DHT22;10528;52.124;5.196;2023-02-01T01:13:57;7.70;99.90
20735;DHT22;10528;52.124;5.196;2023-02-01T01:16:26;7.60;99.90
20735;DHT22;10528;52.124;5.196;2023-02-01T01:18:56;7.90;99.90
20735;DHT22;10528;52.124;5.196;2023-02-01T01:21:23;7.80;99.90
20735;DHT22;10528;52.124;5.196;2023-02-01T01:23:52;7.80;99.90
20735;DHT22;10528;52.124;5.196;2023-02-01T01:26:22;7.70;99.90
20735;DHT22;10528;52.124;5.196;2023-02-01T01:28:51;7.80;99.90
20735;DHT22;10528;52.124;5.196;2023-02-01T01:31:19;7.80;99.90
20735;DHT22;10528;52.124;5.196;2023-02-01T01:33:52;7.60;99.90
20735;DHT22;10528;52.124;5.196;2023-02-01T01:36:21;7.60;99.90
20735;DHT22;10528;52.124;5.196;2023-02-01T01:38:48;7.70;99.90
20735;DHT22;10528;52.124;5.196;2023-02-01T01:41:22;8.00;99.90
20735;DHT22;10528;52.124;5.196;2023-02-01T01:43:59;7.90;99.90
20735;DHT22;10528;52.124;5.196;2023-02-01T01:46:33;7.70;99.90
20735;DHT22;10528;52.124;5.196;2023-02-01T01:51:46;7.80;99.90
20735;DHT22;10528;52.124;5.196;2023-02-01T01:54:31;8.00;99.90
20735;DHT22;10528;52.124;5.196;2023-02-01T01:57:06;7.90;99.90
20735;DHT22;10528;52.124;5.196;2023-02-01T02:00:13;7.80;99.90
20735;DHT22;10528;52.124;5.196;2023-02-01T02:02:46;8.10;99.90
20735;DHT22;10528;52.124;5.196;2023-02-01T02:05:15;7.90;99.90
20735;DHT22;10528;52.124;5.196;2023-02-01T02:07:47;8.10;99.90
20735;DHT22;10528;52.124;5.196;2023-02-01T02:10:16;8.20;99.90
20735;DHT22;10528;52.124;5.196;2023-02-01T02:12:45;8.20;99.90
20735;DHT22;10528;52.124;5.196;2023-02-01T02:15:16;8.20;99.90
20735;DHT22;10528;52.124;5.196;2023-02-01T02:18:01;8.20;99.90
20735;DHT22;10528;52.124;5.196;2023-02-01T02:45:07;8.30;99.90
20735;DHT22;10528;52.124;5.196;2023-02-01T02:50:55;8.40;99.90
20735;DHT22;10528;52.124;5.196;2023-02-01T02:54:08;8.40;99.90
20735;DHT22;10528;52.124;5.196;2023-02-01T02:56:58;8.30;99.90
20735;DHT22;10528;52.124;5.196;2023-02-01T02:59:47;8.20;99.90
20735;DHT22;10528;52.124;5.196;2023-02-01T03:02:34;8.10;99.90
20735;DHT22;10528;52.124;5.196;2023-02-01T03:05:20;8.20;99.90
20735;DHT22;10528;52.124;5.196;2023-02-01T03:08:01;8.30;99.90
20735;DHT22;10528;52.124;5.196;2023-02-01T03:21:47;8.30;99.90
20735;DHT22;10528;52.124;5.196;2023-02-01T03:24:24;8.30;99.90
20735;DHT22;10528;52.124;5.196;2023-02-01T03:27:10;8.20;99.90
20735;DHT22;10528;52.124;5.196;2023-02-01T03:30:02;8.00;99.90
20735;DHT22;10528;52.124;5.196;2023-02-01T03:32:36;8.00;99.90
20735;DHT22;10528;52.124;5.196;2023-02-01T03:38:22;8.10;99.90
20735;DHT22;10528;52.124;5.196;2023-02-01T03:46:41;8.20;99.90
20735;DHT22;10528;52.124;5.196;2023-02-01T03:49:23;8.30;99.90
20735;DHT22;10528;52.124;5.196;2023-02-01T03:51:55;8.20;99.90
20735;DHT22;10528;52.124;5.196;2023-02-01T03:54:26;8.10;99.90
20735;DHT22;10528;52.124;5.196;2023-02-01T03:56:57;8.10;99.90
20735;DHT22;10528;52.124;5.196;2023-02-01T03:59:27;7.90;99.90
20735;DHT22;10528;52.124;5.196;2023-02-01T04:01:54;7.90;99.90
20735;DHT22;10528;52.124;5.196;2023-02-01T04:04:21;8.10;99.90
20735;DHT22;10528;52.124;5.196;2023-02-01T04:06:52;8.10;99.90
20735;DHT22;10528;52.124;5.196;2023-02-01T04:09:19;8.00;99.90
20735;DHT22;10528;52.124;5.196;2023-02-01T04:11:46;8.00;99.90
20735;DHT22;10528;52.124;5.196;2023-02-01T04:14:13;8.10;99.90
20735;DHT22;10528;52.124;5.196;2023-02-01T04:16:40;8.20;99.90
20735;DHT22;10528;52.124;5.196;2023-02-01T04:19:07;8.20;99.90
20735;DHT22;10528;52.124;5.196;2023-02-01T04:21:34;8.40;99.90
20735;DHT22;10528;52.124;5.196;2023-02-01T04:24:01;8.30;99.90
20735;DHT22;10528;52.124;5.196;2023-02-01T04:26:28;8.30;99.90
20735;DHT22;10528;52.124;5.196;2023-02-01T04:28:55;8.30;99.90
20735;DHT22;10528;52.124;5.196;2023-02-01T04:31:22;8.60;99.90
20735;DHT22;10528;52.124;5.196;2023-02-01T04:33:53;8.60;99.90
20735;DHT22;10528;52.124;5.196;2023-02-01T04:36:21;8.50;99.90
20735;DHT22;10528;52.124;5.196;2023-02-01T04:38:49;8.30;99.90
20735;DHT22;10528;52.124;5.196;2023-02-01T04:41:17;8.40;99.90
20735;DHT22;10528;52.124;5.196;2023-02-01T04:43:50;8.40;99.90
20735;DHT22;10528;52.124;5.196;2023-02-01T04:46:19;8.50;99.90
20735;DHT22;10528;52.124;5.196;2023-02-01T04:48:46;8.50;99.90
20735;DHT22;10528;52.124;5.196;2023-02-01T04:51:13;8.10;99.90
20735;DHT22;10528;52.124;5.196;2023-02-01T04:53:41;8.10;99.90
20735;DHT22;10528;52.124;5.196;2023-02-01T04:56:08;7.90;99.90
20735;DHT22;10528;52.124;5.196;2023-02-01T04:58:35;7.90;99.90
20735;DHT22;10528;52.124;5.196;2023-02-01T05:01:04;8.00;99.90
20735;DHT22;10528;52.124;5.196;2023-02-01T05:03:35;8.00;99.90
20735;DHT22;10528;52.124;5.196;2023-02-01T05:06:02;7.80;99.90
20735;DHT22;10528;52.124;5.196;2023-02-01T05:08:32;7.90;99.90
20735;DHT22;10528;52.124;5.196;2023-02-01T05:10:59;8.00;99.90
20735;DHT22;10528;52.124;5.196;2023-02-01T05:13:29;7.90;99.90
20735;DHT22;10528;52.124;5.196;2023-02-01T05:16:15;7.80;99.90
20735;DHT22;10528;52.124;5.196;2023-02-01T05:18:42;7.80;99.90
20735;DHT22;10528;52.124;5.196;2023-02-01T05:21:09;7.90;99.90
20735;DHT22;10528;52.124;5.196;2023-02-01T05:23:36;8.10;99.90
20735;DHT22;10528;52.124;5.196;2023-02-01T05:26:23;8.10;99.90
20735;DHT22;10528;52.124;5.196;2023-02-01T05:28:50;8.10;99.90
20735;DHT22;10528;52.124;5.196;2023-02-01T05:31:18;8.10;99.90
20735;DHT22;10528;52.124;5.196;2023-02-01T05:33:45;8.00;99.90
20735;DHT22;10528;52.124;5.196;2023-02-01T05:36:12;8.10;99.90
20735;DHT22;10528;52.124;5.196;2023-02-01T05:38:39;8.00;99.90
20735;DHT22;10528;52.124;5.196;2023-02-01T05:41:05;8.20;99.90
20735;DHT22;10528;52.124;5.196;2023-02-01T05:43:32;8.20;99.90
20735;DHT22;10528;52.124;5.196;2023-02-01T05:45:59;7.90;99.90
20735;DHT22;10528;52.124;5.196;2023-02-01T05:48:27;8.10;99.90
20735;DHT22;10528;52.124;5.196;2023-02-01T05:50:53;8.20;99.90
20735;DHT22;10528;52.124;5.196;2023-02-01T05:53:21;8.10;99.90
20735;DHT22;10528;52.124;5.196;2023-02-01T05:55:48;8.30;99.90
20735;DHT22;10528;52.124;5.196;2023-02-01T05:58:15;8.20;99.90
20735;DHT22;10528;52.124;5.196;2023-02-01T06:00:42;8.40;99.90
20735;DHT22;10528;52.124;5.196;2023-02-01T06:03:08;8.40;99.90
20735;DHT22;10528;52.124;5.196;2023-02-01T06:05:35;8.30;99.90
20735;DHT22;10528;52.124;5.196;2023-02-01T06:08:03;8.10;99.90
20735;DHT22;10528;52.124;5.196;2023-02-01T06:10:30;8.00;99.90
20735;DHT22;10528;52.124;5.196;2023-02-01T06:12:57;8.10;99.90
20735;DHT22;10528;52.124;5.196;2023-02-01T06:15:24;7.90;99.90
20735;DHT22;10528;52.124;5.196;2023-02-01T06:17:51;8.00;99.90
20735;DHT22;10528;52.124;5.196;2023-02-01T06:20:18;8.30;99.90
20735;DHT22;10528;52.124;5.196;2023-02-01T06:22:45;8.20;99.90
20735;DHT22;10528;52.124;5.196;2023-02-01T06:25:12;8.20;99.90
20735;DHT22;10528;52.124;5.196;2023-02-01T06:27:39;8.30;99.90
20735;DHT22;10528;52.124;5.196;2023-02-01T06:30:06;8.10;99.90
20735;DHT22;10528;52.124;5.196;2023-02-01T06:32:34;8.10;99.90
20735;DHT22;10528;52.124;5.196;2023-02-01T06:35:01;8.30;99.90
20735;DHT22;10528;52.124;5.196;2023-02-01T06:37:27;8.10;99.90
20735;DHT22;10528;52.124;5.196;2023-02-01T06:39:55;8.00;99.90
20735;DHT22;10528;52.124;5.196;2023-02-01T06:42:22;8.00;99.90
20735;DHT22;10528;52.124;5.196;2023-02-01T06:44:49;7.90;99.90
20735;DHT22;10528;52.124;5.196;2023-02-01T06:47:16;8.00;99.90
20735;DHT22;10528;52.124;5.196;2023-02-01T06:49:43;7.90;99.90
20735;DHT22;10528;52.124;5.196;2023-02-01T06:52:10;8.30;99.90
20735;DHT22;10528;52.124;5.196;2023-02-01T06:54:37;8.10;99.90
20735;DHT22;10528;52.124;5.196;2023-02-01T06:57:04;8.20;99.90
20735;DHT22;10528;52.124;5.196;2023-02-01T06:59:31;8.20;99.90
20735;DHT22;10528;52.124;5.196;2023-02-01T07:01:58;8.30;99.90
20735;DHT22;10528;52.124;5.196;2023-02-01T07:04:25;8.10;99.90
20735;DHT22;10528;52.124;5.196;2023-02-01T07:06:52;7.90;99.90
20735;DHT22;10528;52.124;5.196;2023-02-01T07:09:19;8.00;99.90
20735;DHT22;10528;52.124;5.196;2023-02-01T07:11:46;8.00;99.90
20735;DHT22;10528;52.124;5.196;2023-02-01T07:14:13;8.30;99.90
20735;DHT22;10528;52.124;5.196;2023-02-01T07:16:40;8.20;99.90
20735;DHT22;10528;52.124;5.196;2023-02-01T07:19:07;8.30;99.90
20735;DHT22;10528;52.124;5.196;2023-02-01T07:21:34;8.50;99.90
20735;DHT22;10528;52.124;5.196;2023-02-01T07:24:00;8.20;99.90
20735;DHT22;10528;52.124;5.196;2023-02-01T07:26:27;8.40;99.90
20735;DHT22;10528;52.124;5.196;2023-02-01T07:28:54;8.40;99.90
20735;DHT22;10528;52.124;5.196;2023-02-01T07:31:21;8.40;99.90
20735;DHT22;10528;52.124;5.196;2023-02-01T07:33:49;8.50;99.90
20735;DHT22;10528;52.124;5.196;2023-02-01T07:36:19;8.20;99.90
20735;DHT22;10528;52.124;5.196;2023-02-01T07:38:47;8.50;99.90
20735;DHT22;10528;52.124;5.196;2023-02-01T07:41:14;8.50;99.90
20735;DHT22;10528;52.124;5.196;2023-02-01T07:43:42;8.50;99.90
20735;DHT22;10528;52.124;5.196;2023-02-01T07:46:10;8.40;99.90
20735;DHT22;10528;52.124;5.196;2023-02-01T07:48:37;8.40;99.90
20735;DHT22;10528;52.124;5.196;2023-02-01T07:51:08;8.70;99.90
20735;DHT22;10528;52.124;5.196;2023-02-01T07:53:37;8.30;99.90
20735;DHT22;10528;52.124;5.196;2023-02-01T07:56:14;8.60;99.90
20735;DHT22;10528;52.124;5.196;2023-02-01T07:58:46;8.80;99.90
20735;DHT22;10528;52.124;5.196;2023-02-01T08:01:20;8.60;99.90
20735;DHT22;10528;52.124;5.196;2023-02-01T08:04:01;8.40;99.90
20735;DHT22;10528;52.124;5.196;2023-02-01T08:06:31;8.00;99.90
20735;DHT22;10528;52.124;5.196;2023-02-01T08:09:00;8.00;99.90
20735;DHT22;10528;52.124;5.196;2023-02-01T08:11:28;8.20;99.90
20735;DHT22;10528;52.124;5.196;2023-02-01T08:13:56;8.30;99.90
20735;DHT22;10528;52.124;5.196;2023-02-01T08:16:24;8.40;99.90
20735;DHT22;10528;52.124;5.196;2023-02-01T08:18:52;8.20;99.90
20735;DHT22;10528;52.124;5.196;2023-02-01T08:21:25;8.30;99.90
20735;DHT22;10528;52.124;5.196;2023-02-01T08:24:06;8.30;99.90
20735;DHT22;10528;52.124;5.196;2023-02-01T08:26:35;8.20;99.90
20735;DHT22;10528;52.124;5.196;2023-02-01T08:29:04;8.10;99.90
20735;DHT22;10528;52.124;5.196;2023-02-01T08:31:33;8.10;99.90
20735;DHT22;10528;52.124;5.196;2023-02-01T08:34:02;8.10;99.90
20735;DHT22;10528;52.124;5.196;2023-02-01T08:36:32;8.60;99.90
20735;DHT22;10528;52.124;5.196;2023-02-01T08:38:59;8.50;99.90
20735;DHT22;10528;52.124;5.196;2023-02-01T08:41:28;8.40;99.90
20735;DHT22;10528;52.124;5.196;2023-02-01T08:43:57;8.50;99.90
20735;DHT22;10528;52.124;5.196;2023-02-01T08:46:24;8.30;99.90
20735;DHT22;10528;52.124;5.196;2023-02-01T08:48:52;8.40;99.90
20735;DHT22;10528;52.124;5.196;2023-02-01T08:51:20;8.70;99.90
20735;DHT22;10528;52.124;5.196;2023-02-01T08:53:49;8.90;99.90
20735;DHT22;10528;52.124;5.196;2023-02-01T08:56:18;8.80;99.90
20735;DHT22;10528;52.124;5.196;2023-02-01T08:58:47;8.80;99.90
20735;DHT22;10528;52.124;5.196;2023-02-01T09:01:15;8.50;99.90
20735;DHT22;10528;52.124;5.196;2023-02-01T09:03:44;8.70;99.90
20735;DHT22;10528;52.124;5.196;2023-02-01T09:06:13;8.80;99.90
20735;DHT22;10528;52.124;5.196;2023-02-01T09:08:41;8.80;99.90
20735;DHT22;10528;52.124;5.196;2023-02-01T09:11:16;8.80;99.90
20735;DHT22;10528;52.124;5.196;2023-02-01T09:13:46;8.80;99.90
20735;DHT22;10528;52.124;5.196;2023-02-01T09:16:14;8.90;99.90
20735;DHT22;10528;52.124;5.196;2023-02-01T09:18:41;9.30;99.90
20735;DHT22;10528;52.124;5.196;2023-02-01T09:21:27;9.30;99.90
20735;DHT22;10528;52.124;5.196;2023-02-01T09:23:54;9.30;99.90
20735;DHT22;10528;52.124;5.196;2023-02-01T09:26:21;9.30;99.90
20735;DHT22;10528;52.124;5.196;2023-02-01T09:28:58;9.20;99.90
20735;DHT22;10528;52.124;5.196;2023-02-01T09:31:25;9.50;99.90
20735;DHT22;10528;52.124;5.196;2023-02-01T09:33:52;9.30;99.90
20735;DHT22;10528;52.124;5.196;2023-02-01T09:36:19;9.00;99.90
20735;DHT22;10528;52.124;5.196;2023-02-01T09:38:46;9.00;99.90
20735;DHT22;10528;52.124;5.196;2023-02-01T09:44:57;8.90;99.90
20735;DHT22;10528;52.124;5.196;2023-02-01T09:47:45;9.00;99.90
20735;DHT22;10528;52.124;5.196;2023-02-01T09:50:18;9.10;99.90
20735;DHT22;10528;52.124;5.196;2023-02-01T09:56:06;8.80;99.90
20735;DHT22;10528;52.124;5.196;2023-02-01T09:59:01;8.80;99.90
20735;DHT22;10528;52.124;5.196;2023-02-01T10:01:37;8.70;99.90
20735;DHT22;10528;52.124;5.196;2023-02-01T10:04:10;8.70;99.90
20735;DHT22;10528;52.124;5.196;2023-02-01T10:06:51;8.70;99.90
20735;DHT22;10528;52.124;5.196;2023-02-01T10:15:35;8.70;99.90
20735;DHT22;10528;52.124;5.196;2023-02-01T10:21:19;8.40;99.90
20735;DHT22;10528;52.124;5.196;2023-02-01T10:24:20;8.30;99.90
20735;DHT22;10528;52.124;5.196;2023-02-01T10:27:02;8.40;99.90
20735;DHT22;10528;52.124;5.196;2023-02-01T10:30:05;8.30;99.90
20735;DHT22;10528;52.124;5.196;2023-02-01T10:33:17;8.30;99.90
20735;DHT22;10528;52.124;5.196;2023-02-01T10:36:21;8.40;99.90
20735;DHT22;10528;52.124;5.196;2023-02-01T10:38:52;8.30;99.90
20735;DHT22;10528;52.124;5.196;2023-02-01T10:41:23;8.40;99.90
20735;DHT22;10528;52.124;5.196;2023-02-01T10:43:57;8.70;99.90
20735;DHT22;10528;52.124;5.196;2023-02-01T10:46:26;8.50;99.90
20735;DHT22;10528;52.124;5.196;2023-02-01T10:48:55;8.50;99.90
20735;DHT22;10528;52.124;5.196;2023-02-01T10:51:30;8.70;99.90
20735;DHT22;10528;52.124;5.196;2023-02-01T10:54:22;8.80;99.90
20735;DHT22;10528;52.124;5.196;2023-02-01T10:57:00;8.90;99.90
20735;DHT22;10528;52.124;5.196;2023-02-01T10:59:28;8.90;99.90
20735;DHT22;10528;52.124;5.196;2023-02-01T11:02:01;8.90;99.90
20735;DHT22;10528;52.124;5.196;2023-02-01T11:04:39;8.80;99.90
20735;DHT22;10528;52.124;5.196;2023-02-01T11:07:27;8.80;99.90
20735;DHT22;10528;52.124;5.196;2023-02-01T11:09:55;8.90;99.90
20735;DHT22;10528;52.124;5.196;2023-02-01T11:12:36;8.80;99.90
20735;DHT22;10528;52.124;5.196;2023-02-01T11:15:21;8.60;99.90
20735;DHT22;10528;52.124;5.196;2023-02-01T11:17:51;8.70;99.90
20735;DHT22;10528;52.124;5.196;2023-02-01T11:20:39;8.60;99.90
20735;DHT22;10528;52.124;5.196;2023-02-01T11:23:19;8.60;99.90
20735;DHT22;10528;52.124;5.196;2023-02-01T11:25:59;8.70;99.90
20735;DHT22;10528;52.124;5.196;2023-02-01T11:28:31;8.80;99.90
20735;DHT22;10528;52.124;5.196;2023-02-01T11:31:03;8.90;99.90
20735;DHT22;10528;52.124;5.196;2023-02-01T11:33:35;8.90;99.90
20735;DHT22;10528;52.124;5.196;2023-02-01T11:36:31;9.00;99.90
20735;DHT22;10528;52.124;5.196;2023-02-01T11:42:05;8.80;99.90
20735;DHT22;10528;52.124;5.196;2023-02-01T11:44:45;9.00;99.90
20735;DHT22;10528;52.124;5.196;2023-02-01T11:47:29;9.00;99.90
20735;DHT22;10528;52.124;5.196;2023-02-01T11:50:03;9.00;99.90
20735;DHT22;10528;52.124;5.196;2023-02-01T11:55:55;9.10;99.90
20735;DHT22;10528;52.124;5.196;2023-02-01T12:08:56;9.00;99.90
20735;DHT22;10528;52.124;5.196;2023-02-01T12:11:38;9.00;99.90
20735;DHT22;10528;52.124;5.196;2023-02-01T12:18:27;9.30;99.90
20735;DHT22;10528;52.124;5.196;2023-02-01T12:21:30;9.20;99.90
20735;DHT22;10528;52.124;5.196;2023-02-01T12:24:33;9.20;99.90
20735;DHT22;10528;52.124;5.196;2023-02-01T12:36:40;9.10;99.90
20735;DHT22;10528;52.124;5.196;2023-02-01T12:42:12;9.20;99.90
20735;DHT22;10528;52.124;5.196;2023-02-01T12:47:38;9.20;99.90
20735;DHT22;10528;52.124;5.196;2023-02-01T12:52:50;9.30;99.90
20735;DHT22;10528;52.124;5.196;2023-02-01T12:55:34;9.20;99.90
20735;DHT22;10528;52.124;5.196;2023-02-01T12:58:27;9.20;99.90
20735;DHT22;10528;52.124;5.196;2023-02-01T13:01:32;9.30;99.90
20735;DHT22;10528;52.124;5.196;2023-02-01T13:04:20;9.30;99.90
20735;DHT22;10528;52.124;5.196;2023-02-01T13:07:11;9.30;99.90
20735;DHT22;10528;52.124;5.196;2023-02-01T13:12:54;9.10;99.90
20735;DHT22;10528;52.124;5.196;2023-02-01T13:15:39;9.10;99.90
20735;DHT22;10528;52.124;5.196;2023-02-01T13:18:16;9.10;99.90
20735;DHT22;10528;52.124;5.196;2023-02-01T13:20:55;9.10;99.90
20735;DHT22;10528;52.124;5.196;2023-02-01T13:23:35;9.20;99.90
20735;DHT22;10528;52.124;5.196;2023-02-01T13:26:04;9.20;99.90
20735;DHT22;10528;52.124;5.196;2023-02-01T13:43:16;9.20;99.90
20735;DHT22;10528;52.124;5.196;2023-02-01T13:45:51;9.20;99.90
20735;DHT22;10528;52.124;5.196;2023-02-01T13:48:46;9.20;99.90
20735;DHT22;10528;52.124;5.196;2023-02-01T13:54:07;9.40;99.90
20735;DHT22;10528;52.124;5.196;2023-02-01T13:56:52;9.30;99.90
20735;DHT22;10528;52.124;5.196;2023-02-01T14:10:59;9.30;99.90
20735;DHT22;10528;52.124;5.196;2023-02-01T14:13:37;9.30;99.90
20735;DHT22;10528;52.124;5.196;2023-02-01T14:21:33;9.20;99.90
20735;DHT22;10528;52.124;5.196;2023-02-01T14:24:16;9.20;99.90
20735;DHT22;10528;52.124;5.196;2023-02-01T14:27:01;9.20;99.90
20735;DHT22;10528;52.124;5.196;2023-02-01T14:29:55;9.30;99.90
20735;DHT22;10528;52.124;5.196;2023-02-01T14:32:31;9.20;99.90
20735;DHT22;10528;52.124;5.196;2023-02-01T14:35:06;9.30;99.90
20735;DHT22;10528;52.124;5.196;2023-02-01T14:37:44;9.30;99.90
20735;DHT22;10528;52.124;5.196;2023-02-01T14:55:43;9.20;99.90
20735;DHT22;10528;52.124;5.196;2023-02-01T14:58:31;9.30;99.90
20735;DHT22;10528;52.124;5.196;2023-02-01T15:01:22;9.30;99.90
20735;DHT22;10528;52.124;5.196;2023-02-01T15:04:12;9.30;99.90
20735;DHT22;10528;52.124;5.196;2023-02-01T15:06:50;9.20;99.90
20735;DHT22;10528;52.124;5.196;2023-02-01T15:09:27;9.30;99.90
20735;DHT22;10528;52.124;5.196;2023-02-01T15:12:15;9.20;99.90
20735;DHT22;10528;52.124;5.196;2023-02-01T15:17:41;9.30;99.90
20735;DHT22;10528;52.124;5.196;2023-02-01T15:20:22;9.30;99.90
20735;DHT22;10528;52.124;5.196;2023-02-01T15:23:15;9.30;99.90
20735;DHT22;10528;52.124;5.196;2023-02-01T15:25:45;9.30;99.90
20735;DHT22;10528;52.124;5.196;2023-02-01T15:28:14;9.30;99.90
20735;DHT22;10528;52.124;5.196;2023-02-01T15:31:03;9.20;99.90
20735;DHT22;10528;52.124;5.196;2023-02-01T15:33:32;9.30;99.90
20735;DHT22;10528;52.124;5.196;2023-02-01T15:41:20;9.30;99.90
20735;DHT22;10528;52.124;5.196;2023-02-01T15:49:02;9.30;99.90
20735;DHT22;10528;52.124;5.196;2023-02-01T15:51:31;9.20;99.90
20735;DHT22;10528;52.124;5.196;2023-02-01T15:54:07;9.30;99.90
20735;DHT22;10528;52.124;5.196;2023-02-01T15:56:40;9.30;99.90
20735;DHT22;10528;52.124;5.196;2023-02-01T15:59:16;9.30;99.90
20735;DHT22;10528;52.124;5.196;2023-02-01T16:01:45;9.40;99.90
20735;DHT22;10528;52.124;5.196;2023-02-01T16:04:28;9.30;99.90
20735;DHT22;10528;52.124;5.196;2023-02-01T16:06:59;9.30;99.90
20735;DHT22;10528;52.124;5.196;2023-02-01T16:09:56;9.40;99.90
20735;DHT22;10528;52.124;5.196;2023-02-01T16:12:33;9.40;99.90
20735;DHT22;10528;52.124;5.196;2023-02-01T16:15:12;9.30;99.90
20735;DHT22;10528;52.124;5.196;2023-02-01T16:17:39;9.20;99.90
20735;DHT22;10528;52.124;5.196;2023-02-01T16:20:06;9.20;99.90
20735;DHT22;10528;52.124;5.196;2023-02-01T16:22:33;9.30;99.90
20735;DHT22;10528;52.124;5.196;2023-02-01T16:25:00;9.20;99.90
20735;DHT22;10528;52.124;5.196;2023-02-01T16:27:28;9.20;99.90
20735;DHT22;10528;52.124;5.196;2023-02-01T16:29:55;9.20;99.90
20735;DHT22;10528;52.124;5.196;2023-02-01T16:32:23;9.30;99.90
20735;DHT22;10528;52.124;5.196;2023-02-01T16:34:50;9.30;99.90
20735;DHT22;10528;52.124;5.196;2023-02-01T16:37:21;9.30;99.90
20735;DHT22;10528;52.124;5.196;2023-02-01T16:39:50;9.30;99.90
20735;DHT22;10528;52.124;5.196;2023-02-01T16:42:17;9.30;99.90
20735;DHT22;10528;52.124;5.196;2023-02-01T16:44:44;9.20;99.90
20735;DHT22;10528;52.124;5.196;2023-02-01T16:47:16;9.30;99.90
20735;DHT22;10528;52.124;5.196;2023-02-01T16:49:47;9.20;99.90
20735;DHT22;10528;52.124;5.196;2023-02-01T16:52:18;9.30;99.90
20735;DHT22;10528;52.124;5.196;2023-02-01T16:54:47;9.30;99.90
20735;DHT22;10528;52.124;5.196;2023-02-01T16:57:16;9.30;99.90
20735;DHT22;10528;52.124;5.196;2023-02-01T16:59:44;9.30;99.90
20735;DHT22;10528;52.124;5.196;2023-02-01T17:02:13;9.30;99.90
20735;DHT22;10528;52.124;5.196;2023-02-01T17:04:42;9.30;99.90
20735;DHT22;10528;52.124;5.196;2023-02-01T17:07:14;9.20;99.90
20735;DHT22;10528;52.124;5.196;2023-02-01T17:09:43;9.20;99.90
20735;DHT22;10528;52.124;5.196;2023-02-01T17:12:25;9.30;99.90
20735;DHT22;10528;52.124;5.196;2023-02-01T17:14:56;9.40;99.90
20735;DHT22;10528;52.124;5.196;2023-02-01T17:17:37;9.40;99.90
20735;DHT22;10528;52.124;5.196;2023-02-01T17:20:06;9.50;99.90
20735;DHT22;10528;52.124;5.196;2023-02-01T17:22:33;9.50;99.90
20735;DHT22;10528;52.124;5.196;2023-02-01T17:25:00;9.30;99.90
20735;DHT22;10528;52.124;5.196;2023-02-01T17:27:27;9.30;99.90
20735;DHT22;10528;52.124;5.196;2023-02-01T17:29:55;9.30;99.90
20735;DHT22;10528;52.124;5.196;2023-02-01T17:32:24;9.30;99.90
20735;DHT22;10528;52.124;5.196;2023-02-01T17:34:52;9.30;99.90
20735;DHT22;10528;52.124;5.196;2023-02-01T17:37:28;9.30;99.90
20735;DHT22;10528;52.124;5.196;2023-02-01T17:39:57;9.30;99.90
20735;DHT22;10528;52.124;5.196;2023-02-01T17:42:29;9.30;99.90
20735;DHT22;10528;52.124;5.196;2023-02-01T17:44:58;9.40;99.90
20735;DHT22;10528;52.124;5.196;2023-02-01T17:47:28;9.40;99.90
20735;DHT22;10528;52.124;5.196;2023-02-01T17:49:54;9.50;99.90
20735;DHT22;10528;52.124;5.196;2023-02-01T17:52:24;9.40;99.90
20735;DHT22;10528;52.124;5.196;2023-02-01T17:54:51;9.40;99.90
20735;DHT22;10528;52.124;5.196;2023-02-01T17:57:20;9.40;99.90
20735;DHT22;10528;52.124;5.196;2023-02-01T17:59:47;9.40;99.90
20735;DHT22;10528;52.124;5.196;2023-02-01T18:02:21;9.40;99.90
20735;DHT22;10528;52.124;5.196;2023-02-01T18:04:50;9.40;99.90
20735;DHT22;10528;52.124;5.196;2023-02-01T18:07:17;9.40;99.90
20735;DHT22;10528;52.124;5.196;2023-02-01T18:09:44;9.40;99.90
20735;DHT22;10528;52.124;5.196;2023-02-01T18:12:18;9.50;99.90
20735;DHT22;10528;52.124;5.196;2023-02-01T18:14:47;9.50;99.90
20735;DHT22;10528;52.124;5.196;2023-02-01T18:17:14;9.50;99.90
20735;DHT22;10528;52.124;5.196;2023-02-01T18:19:41;9.40;99.90
20735;DHT22;10528;52.124;5.196;2023-02-01T18:22:15;9.60;99.90
20735;DHT22;10528;52.124;5.196;2023-02-01T18:24:43;9.70;99.90
20735;DHT22;10528;52.124;5.196;2023-02-01T18:27:10;9.60;99.90
20735;DHT22;10528;52.124;5.196;2023-02-01T18:29:37;9.60;99.90
20735;DHT22;10528;52.124;5.196;2023-02-01T18:32:04;9.70;99.90
20735;DHT22;10528;52.124;5.196;2023-02-01T18:34:31;9.60;99.90
20735;DHT22;10528;52.124;5.196;2023-02-01T18:36:58;9.60;99.90
20735;DHT22;10528;52.124;5.196;2023-02-01T18:39:26;9.40;99.90
20735;DHT22;10528;52.124;5.196;2023-02-01T18:41:52;9.50;99.90
20735;DHT22;10528;52.124;5.196;2023-02-01T18:44:19;9.40;99.90
20735;DHT22;10528;52.124;5.196;2023-02-01T18:46:46;9.40;99.90
20735;DHT22;10528;52.124;5.196;2023-02-01T18:49:13;9.50;99.90
20735;DHT22;10528;52.124;5.196;2023-02-01T18:51:44;9.50;99.90
20735;DHT22;10528;52.124;5.196;2023-02-01T18:54:12;9.50;99.90
20735;DHT22;10528;52.124;5.196;2023-02-01T18:56:38;9.40;99.90
20735;DHT22;10528;52.124;5.196;2023-02-01T18:59:05;9.40;99.90
20735;DHT22;10528;52.124;5.196;2023-02-01T19:01:32;9.40;99.90
20735;DHT22;10528;52.124;5.196;2023-02-01T19:03:59;9.40;99.90
20735;DHT22;10528;52.124;5.196;2023-02-01T19:06:38;9.40;99.90
20735;DHT22;10528;52.124;5.196;2023-02-01T19:09:05;9.40;99.90
20735;DHT22;10528;52.124;5.196;2023-02-01T19:11:33;9.50;99.90